Time;durP1;ratioP1;P1;durP2;ratioP2;P2;SDS_P1;SDS_P2;PMS_P1;PMS_P2;Temp;Humidity;BMP_temperature;BMP_pressure;BME280_temperature;BME280_humidity;BME280_pressure;Samples;Min_cycle;Max_cycle;Signal;HPM_P1;HPM_P2
2021/12/11 00:02:17;;;;;;;99.40;77.60;;;;;;;-0.48;78.71;96742.29;106196;1321;137776;-62
2021/12/11 00:04:57;;;;;;;118.50;82.40;;;;;;;-0.52;78.82;96759.09;105911;1325;22494;-63
2021/12/11 00:07:31;;;;;;;110.00;80.90;;;;;;;-0.59;78.94;96767.15;105737;1322;22626;-63
2021/12/11 00:10:31;;;;;;;113.30;76.80;;;;;;;-0.65;78.80;96781.50;105738;1323;22487;-62
2021/12/11 00:13:07;;;;;;;98.40;72.70;;;;;;;-0.72;78.82;96800.23;105911;1327;22467;-62
2021/12/11 00:15:44;;;;;;;91.60;73.40;;;;;;;-0.77;78.70;96804.01;105762;1327;22457;-62
2021/12/11 00:18:52;;;;;;;127.70;80.30;;;;;;;-0.79;78.81;96808.48;105896;1319;23401;-62
2021/12/11 00:21:39;;;;;;;144.50;84.10;;;;;;;-0.81;79.18;96816.35;105482;1327;22920;-62
2021/12/11 00:24:11;;;;;;;125.20;83.30;;;;;;;-0.83;79.32;96816.80;105907;1322;23055;-62
2021/12/11 00:26:47;;;;;;;136.60;83.10;;;;;;;-0.82;79.42;96810.58;105949;1325;22300;-62
2021/12/11 00:29:22;;;;;;;131.30;81.80;;;;;;;-0.79;79.46;96815.95;105928;1328;22334;-63
2021/12/11 00:31:54;;;;;;;101.30;73.20;;;;;;;-0.77;79.15;96819.45;105669;1328;139013;-62
2021/12/11 00:34:23;;;;;;;105.70;76.50;;;;;;;-0.76;79.17;96821.05;105854;1326;22477;-62
2021/12/11 00:37:20;;;;;;;124.20;80.20;;;;;;;-0.77;79.35;96830.09;106258;1317;22542;-62
2021/12/11 00:40:08;;;;;;;130.70;82.40;;;;;;;-0.80;79.36;96830.05;106279;1317;23808;-62
2021/12/11 00:42:57;;;;;;;145.10;83.40;;;;;;;-0.80;79.64;96832.10;106219;1322;22631;-62
2021/12/11 00:45:36;;;;;;;135.20;82.10;;;;;;;-0.76;79.88;96837.13;106274;1317;22623;-63
2021/12/11 00:48:42;;;;;;;120.70;80.60;;;;;;;-0.71;79.74;96837.23;106315;1317;22527;-62
2021/12/11 00:51:26;;;;;;;119.50;82.00;;;;;;;-0.66;79.58;96838.42;105877;1324;22350;-62
2021/12/11 00:54:16;;;;;;;117.80;82.70;;;;;;;-0.61;79.58;96843.92;105876;1320;22595;-62
2021/12/11 00:56:49;;;;;;;120.90;83.50;;;;;;;-0.56;79.87;96841.31;105857;1324;23155;-62
2021/12/11 00:59:20;;;;;;;141.60;86.20;;;;;;;-0.49;79.97;96843.90;105903;1320;22329;-62
2021/12/11 01:01:59;;;;;;;130.20;82.60;;;;;;;-0.43;79.84;96847.60;105768;1321;137932;-62
2021/12/11 01:04:42;;;;;;;113.30;78.10;;;;;;;-0.38;79.76;96852.19;105658;1327;23284;-62
2021/12/11 01:07:19;;;;;;;125.10;84.30;;;;;;;-0.30;79.84;96862.46;105882;1326;22530;-62
2021/12/11 01:10:25;;;;;;;120.20;81.90;;;;;;;-0.23;79.77;96867.81;105851;1325;22609;-62
2021/12/11 01:13:03;;;;;;;138.30;92.70;;;;;;;-0.21;79.97;96870.19;105880;1326;23239;-62
2021/12/11 01:15:49;;;;;;;126.00;86.00;;;;;;;-0.23;79.93;96871.67;105719;1327;22476;-62
2021/12/11 01:18:34;;;;;;;124.60;82.00;;;;;;;-0.22;79.90;96874.64;105860;1327;22436;-61
2021/12/11 01:24:11;;;;;;;128.30;85.10;;;;;;;-0.13;79.81;96887.09;105881;1327;22434;-61
2021/12/11 01:26:49;;;;;;;140.90;87.20;;;;;;;-0.11;79.87;96892.61;105866;1327;22524;-62
2021/12/11 01:29:19;;;;;;;145.80;89.70;;;;;;;-0.12;79.79;96892.71;105693;1327;22620;-61
2021/12/11 01:31:49;;;;;;;144.90;87.60;;;;;;;-0.13;79.87;96898.42;105886;1327;22555;-62
2021/12/11 01:34:17;;;;;;;151.80;89.60;;;;;;;-0.13;79.94;96901.34;105732;1327;23145;-62
2021/12/11 01:36:46;;;;;;;157.50;94.20;;;;;;;-0.16;79.82;96906.13;105836;1327;22483;-61
2021/12/11 01:39:20;;;;;;;151.10;90.80;;;;;;;-0.17;79.82;96908.41;105860;1326;22722;-62
2021/12/11 01:41:50;;;;;;;;;;;;;;;-0.17;79.82;96910.67;105876;1326;23204;-61
2021/12/11 01:44:25;;;;;;;140.60;86.80;;;;;;;-0.22;80.09;96909.90;105855;1327;23103;-62
2021/12/11 01:47:09;;;;;;;152.60;91.50;;;;;;;-0.23;80.38;96903.44;105753;1327;22395;-62
2021/12/11 01:49:40;;;;;;;152.70;92.30;;;;;;;-0.21;80.35;96907.79;105555;1327;422043;-63
2021/12/11 01:52:11;;;;;;;148.90;88.30;;;;;;;-0.22;80.09;96910.55;105851;1327;22525;-61
2021/12/11 01:54:44;;;;;;;129.10;82.20;;;;;;;-0.22;80.04;96916.52;105851;1327;22480;-63
2021/12/11 01:57:19;;;;;;;131.20;85.20;;;;;;;-0.23;79.95;96916.05;105853;1326;22343;-63
2021/12/11 01:59:55;;;;;;;143.50;90.80;;;;;;;-0.27;80.16;96915.52;105885;1327;22340;-63
2021/12/11 02:02:31;;;;;;;142.10;90.00;;;;;;;-0.23;80.42;96910.85;106116;1324;22542;-63
2021/12/11 02:05:00;;;;;;;144.20;91.20;;;;;;;-0.18;80.45;96918.19;106225;1323;22522;-62
2021/12/11 02:07:51;;;;;;;153.60;91.40;;;;;;;-0.14;80.52;96920.23;106252;1324;23138;-61
2021/12/11 02:10:26;;;;;;;137.60;86.90;;;;;;;-0.13;80.37;96925.64;106263;1324;22512;-60
2021/12/11 02:12:54;;;;;;;;;;;;;;;-0.10;80.31;96935.15;106180;1324;22475;-61
2021/12/11 02:15:33;;;;;;;141.90;88.40;;;;;;;-0.07;80.25;96937.70;106248;1324;23160;-60
2021/12/11 02:18:08;;;;;;;144.60;88.10;;;;;;;-0.04;80.34;96943.83;106220;1324;23270;-62
2021/12/11 02:20:42;;;;;;;146.90;88.60;;;;;;;-0.02;80.45;96943.42;106217;1324;22311;-62
2021/12/11 02:23:12;;;;;;;142.80;88.30;;;;;;;-0.02;80.45;96943.73;106267;1323;23645;-62
2021/12/11 02:25:47;;;;;;;156.50;89.00;;;;;;;-0.06;80.12;96945.09;106264;1324;23259;-62
2021/12/11 02:28:20;;;;;;;137.90;84.10;;;;;;;-0.06;80.45;96945.71;106220;1324;22369;-62
2021/12/11 02:31:05;;;;;;;137.50;83.80;;;;;;;-0.03;80.36;96947.27;106251;1324;22589;-63
2021/12/11 02:33:44;;;;;;;159.40;92.30;;;;;;;0.03;80.36;96951.14;106235;1324;22495;-63
2021/12/11 02:36:22;;;;;;;151.20;91.10;;;;;;;0.08;80.38;96952.54;106280;1323;22570;-64
2021/12/11 02:39:15;;;;;;;154.10;92.40;;;;;;;0.09;80.31;96949.73;106260;1324;22408;-60
2021/12/11 02:41:49;;;;;;;171.70;96.30;;;;;;;0.09;80.38;96957.04;106257;1323;23381;-62
2021/12/11 02:44:25;;;;;;;174.70;96.70;;;;;;;0.08;80.28;96964.45;106297;1323;22470;-61
2021/12/11 02:46:59;;;;;;;157.00;89.10;;;;;;;0.02;80.41;96968.35;106279;1323;22422;-62
2021/12/11 02:49:39;;;;;;;143.90;84.80;;;;;;;-0.02;80.37;96968.10;106285;1322;23243;-62
2021/12/11 02:52:11;;;;;;;157.40;86.40;;;;;;;-0.05;80.06;96974.16;106193;1323;23038;-61
2021/12/11 02:54:45;;;;;;;163.90;90.60;;;;;;;-0.11;80.23;96978.04;106258;1324;22580;-62
2021/12/11 02:57:24;;;;;;;165.60;93.50;;;;;;;-0.14;80.29;96988.76;106276;1323;22571;-61
2021/12/11 02:59:53;;;;;;;178.10;97.40;;;;;;;-0.19;80.43;96996.55;106274;1323;22363;-62
2021/12/11 03:02:29;;;;;;;173.90;97.90;;;;;;;-0.21;80.62;96998.17;106241;1321;22233;-62
2021/12/11 03:05:08;;;;;;;169.40;92.00;;;;;;;-0.23;80.61;96996.84;106266;1323;23348;-62
2021/12/11 03:07:38;;;;;;;158.50;89.30;;;;;;;-0.23;80.66;96999.81;106290;1323;23153;-62
2021/12/11 03:10:12;;;;;;;157.10;89.90;;;;;;;-0.19;80.65;97003.64;106297;1323;23390;-61
2021/12/11 03:12:44;;;;;;;165.90;93.80;;;;;;;-0.16;80.63;97005.64;106275;1323;22591;-61
2021/12/11 03:15:15;;;;;;;187.70;96.00;;;;;;;-0.16;80.63;97007.55;106282;1323;23269;-61
2021/12/11 03:17:44;;;;;;;163.80;92.30;;;;;;;-0.19;80.74;97005.81;106277;1323;22502;-61
2021/12/11 03:20:16;;;;;;;178.50;93.70;;;;;;;-0.24;80.60;97000.80;106247;1323;23256;-61
2021/12/11 03:22:46;;;;;;;154.40;87.30;;;;;;;-0.30;80.51;97004.45;106277;1323;22542;-61
2021/12/11 03:25:21;;;;;;;151.10;85.50;;;;;;;-0.29;80.80;97009.82;106269;1323;22405;-61
2021/12/11 03:27:49;;;;;;;158.80;88.70;;;;;;;-0.28;80.68;97010.40;106287;1323;22775;-61
2021/12/11 03:30:23;;;;;;;148.10;87.80;;;;;;;-0.29;80.35;97012.98;106254;1323;22423;-61
2021/12/11 03:32:54;;;;;;;175.70;98.70;;;;;;;-0.32;80.35;97015.60;106254;1324;22395;-62
2021/12/11 03:35:23;;;;;;;164.00;88.00;;;;;;;-0.39;80.91;97014.41;106284;1323;22448;-62
2021/12/11 03:37:51;;;;;;;178.90;97.60;;;;;;;-0.47;80.97;97015.39;106242;1321;22268;-61
2021/12/11 03:40:20;;;;;;;147.30;85.10;;;;;;;-0.50;80.81;97015.11;106299;1323;22598;-62
2021/12/11 03:42:51;;;;;;;119.30;77.50;;;;;;;-0.52;80.95;97020.75;106276;1323;23044;-62
2021/12/11 03:45:25;;;;;;;135.00;83.50;;;;;;;-0.49;80.96;97022.58;106271;1323;22400;-62
2021/12/11 03:48:00;;;;;;;141.00;86.20;;;;;;;-0.52;80.66;97031.38;106276;1323;22445;-62
2021/12/11 03:50:29;;;;;;;153.60;87.30;;;;;;;-0.59;80.76;97030.98;106275;1323;22520;-62
2021/12/11 03:52:57;;;;;;;147.00;88.70;;;;;;;-0.67;80.84;97030.23;106183;1323;22503;-62
2021/12/11 03:55:40;;;;;;;143.00;86.60;;;;;;;-0.73;81.00;97026.97;106235;1323;22312;-62
2021/12/11 03:58:08;;;;;;;125.20;76.80;;;;;;;-0.80;80.87;97026.64;106277;1323;22380;-62
2021/12/11 04:00:43;;;;;;;117.20;75.30;;;;;;;-0.86;80.89;97029.15;106243;1323;22999;-62
2021/12/11 04:03:14;;;;;;;120.20;77.30;;;;;;;-0.91;81.07;97030.83;106278;1323;22546;-62
2021/12/11 04:05:44;;;;;;;138.60;80.90;;;;;;;-0.86;81.48;97035.38;106289;1322;23166;-62
2021/12/11 04:08:17;;;;;;;164.30;86.80;;;;;;;-0.86;81.13;97038.24;106258;1322;23789;-62
2021/12/11 04:10:46;;;;;;;173.80;85.40;;;;;;;-0.89;81.25;97039.59;106202;1324;22498;-62
2021/12/11 04:13:15;;;;;;;170.70;89.80;;;;;;;-0.95;81.31;97045.86;106198;1323;23004;-62
2021/12/11 04:15:47;;;;;;;146.70;81.90;;;;;;;-0.98;81.33;97045.18;106252;1324;23209;-63
2021/12/11 04:18:15;;;;;;;141.30;82.60;;;;;;;-1.00;81.18;97054.52;106272;1323;23271;-63
2021/12/11 04:20:45;;;;;;;149.10;81.70;;;;;;;-0.99;81.47;97056.66;106275;1323;22556;-63
2021/12/11 04:23:14;;;;;;;160.80;86.20;;;;;;;-0.98;81.28;97061.27;106262;1323;22315;-63
2021/12/11 04:25:45;;;;;;;178.90;92.70;;;;;;;-1.02;81.17;97057.73;106297;1323;22317;-62
2021/12/11 04:28:17;;;;;;;181.10;84.30;;;;;;;-1.08;81.42;97056.17;106264;1323;22516;-63
2021/12/11 04:30:51;;;;;;;148.70;80.30;;;;;;;-1.13;81.57;97056.95;106179;1324;23224;-62
2021/12/11 04:33:19;;;;;;;148.50;80.50;;;;;;;-1.23;81.65;97058.81;106203;1323;22359;-63
2021/12/11 04:35:48;;;;;;;145.30;83.30;;;;;;;-1.29;81.85;97057.98;106256;1323;22974;-61
2021/12/11 04:38:16;;;;;;;130.90;77.60;;;;;;;-1.32;81.83;97059.42;106257;1324;23033;-61
2021/12/11 04:40:49;;;;;;;154.30;84.20;;;;;;;-1.42;82.01;97064.42;106273;1324;22572;-61
2021/12/11 04:43:21;;;;;;;170.00;87.70;;;;;;;-1.49;82.31;97062.85;106184;1323;22583;-62
2021/12/11 04:46:01;;;;;;;157.30;86.90;;;;;;;-1.52;82.76;97065.38;106307;1323;22430;-62
2021/12/11 04:54:11;;;;;;;130.00;79.60;;;;;;;-1.53;82.89;97084.86;106273;1323;22576;-63
2021/12/11 04:59:54;;;;;;;245.00;83.30;;;;;;;-1.54;82.54;97101.77;106277;1323;22602;-63
2021/12/11 05:10:28;;;;;;;112.60;72.30;;;;;;;-1.50;82.51;97116.66;106307;1323;22558;-62
2021/12/11 05:12:58;;;;;;;208.70;125.90;;;;;;;-1.50;82.20;97119.89;106290;1323;22497;-62
2021/12/11 05:15:30;;;;;;;144.40;78.80;;;;;;;-1.51;82.63;97124.14;106269;1323;22477;-62
2021/12/11 05:18:00;;;;;;;109.10;71.80;;;;;;;-1.53;82.61;97127.67;106271;1323;22608;-62
2021/12/11 05:20:30;;;;;;;104.30;70.10;;;;;;;-1.53;82.29;97125.19;106252;1323;23171;-62
2021/12/11 05:22:58;;;;;;;104.00;71.30;;;;;;;-1.53;82.49;97123.40;106271;1323;22507;-62
2021/12/11 05:25:27;;;;;;;121.70;75.50;;;;;;;-1.52;82.66;97130.00;106249;1323;23355;-63
2021/12/11 05:27:56;;;;;;;136.10;79.00;;;;;;;-1.52;82.97;97127.69;106272;1323;22495;-62
2021/12/11 05:30:33;;;;;;;141.80;80.50;;;;;;;-1.50;83.07;97130.60;106268;1323;23144;-62
2021/12/11 05:33:02;;;;;;;119.10;75.60;;;;;;;-1.46;83.03;97131.31;106292;1323;22554;-61
2021/12/11 05:35:33;;;;;;;102.60;72.20;;;;;;;-1.41;82.93;97135.48;106284;1323;22584;-62
2021/12/11 05:38:02;;;;;;;131.80;79.50;;;;;;;-1.39;83.00;97129.89;106288;1323;22499;-62
2021/12/11 05:40:33;;;;;;;165.40;81.20;;;;;;;-1.35;83.02;97131.17;106256;1323;22526;-62
2021/12/11 05:43:03;;;;;;;147.10;80.30;;;;;;;-1.32;83.31;97134.23;106300;1323;22528;-62
2021/12/11 05:45:31;;;;;;;181.80;80.50;;;;;;;-1.33;83.15;97130.20;106275;1323;23315;-62
2021/12/11 05:48:00;;;;;;;108.70;69.40;;;;;;;-1.38;83.00;97129.85;106291;1323;22376;-62
2021/12/11 05:50:51;;;;;;;94.80;69.40;;;;;;;-1.42;82.89;97130.89;106259;1323;23190;-62
2021/12/11 05:53:21;;;;;;;99.80;71.10;;;;;;;-1.44;82.64;97134.52;106302;1323;22398;-62
2021/12/11 05:55:53;;;;;;;120.60;76.80;;;;;;;-1.43;82.74;97142.46;106246;1323;23031;-62
2021/12/11 05:58:46;;;;;;;144.00;82.80;;;;;;;-1.41;82.94;97142.17;106241;1323;23104;-62
2021/12/11 06:01:18;;;;;;;155.20;91.60;;;;;;;-1.42;82.97;97146.97;106259;1323;23154;-62
2021/12/11 06:03:47;;;;;;;156.90;89.50;;;;;;;-1.43;83.08;97154.09;106201;1323;23033;-62
2021/12/11 06:06:15;;;;;;;118.20;76.80;;;;;;;-1.42;83.13;97160.39;106277;1323;23778;-62
2021/12/11 06:08:43;;;;;;;143.70;77.90;;;;;;;-1.40;83.08;97159.47;106248;1323;22508;-61
2021/12/11 06:11:15;;;;;;;131.80;77.20;;;;;;;-1.33;83.11;97163.70;106042;1321;139487;-62
2021/12/11 06:13:44;;;;;;;129.10;78.70;;;;;;;-1.23;83.26;97177.45;106175;1317;22537;-62
2021/12/11 06:16:14;;;;;;;144.70;80.70;;;;;;;-1.18;83.30;97180.08;106280;1323;22479;-62
2021/12/11 06:18:45;;;;;;;152.60;77.20;;;;;;;-1.10;83.20;97182.98;106309;1321;23411;-62
2021/12/11 06:21:14;;;;;;;220.40;85.70;;;;;;;-1.16;82.44;97182.36;106159;1323;23317;-62
2021/12/11 06:23:43;;;;;;;155.50;80.90;;;;;;;-1.30;82.41;97182.48;106263;1323;22321;-62
2021/12/11 06:26:12;;;;;;;137.30;78.80;;;;;;;-1.37;82.69;97182.08;106257;1323;23330;-62
2021/12/11 06:28:41;;;;;;;149.50;82.00;;;;;;;-1.37;82.89;97186.53;106171;1324;23026;-62
2021/12/11 06:31:17;;;;;;;199.00;100.30;;;;;;;-1.33;82.92;97187.59;106252;1323;22565;-63
2021/12/11 06:33:48;;;;;;;204.60;87.20;;;;;;;-1.34;82.89;97189.58;106298;1323;22377;-63
2021/12/11 06:36:19;;;;;;;216.80;82.90;;;;;;;-1.44;82.53;97195.83;106245;1323;23098;-63
2021/12/11 06:38:52;;;;;;;169.50;81.70;;;;;;;-1.57;82.62;97205.48;106267;1323;22422;-61
2021/12/11 06:41:25;;;;;;;157.00;76.00;;;;;;;-1.62;82.75;97210.90;106182;1323;22340;-62
2021/12/11 06:43:54;;;;;;;162.10;82.80;;;;;;;-1.64;82.76;97211.96;106278;1323;22364;-63
2021/12/11 06:46:22;;;;;;;183.60;91.20;;;;;;;-1.63;83.00;97214.67;106244;1324;22487;-62
2021/12/11 06:48:51;;;;;;;248.90;111.60;;;;;;;-1.58;83.26;97213.75;106286;1323;22971;-62
2021/12/11 06:51:20;;;;;;;215.90;93.80;;;;;;;-1.57;83.17;97216.77;106253;1323;22263;-62
2021/12/11 06:53:53;;;;;;;160.10;86.20;;;;;;;-1.59;83.22;97227.00;106280;1323;22287;-63
2021/12/11 06:56:23;;;;;;;180.00;86.10;;;;;;;-1.54;83.17;97233.48;106295;1323;22421;-62
2021/12/11 06:58:52;;;;;;;170.90;88.70;;;;;;;-1.48;83.25;97240.78;106259;1323;23294;-63
2021/12/11 07:01:23;;;;;;;171.60;90.40;;;;;;;-1.44;82.93;97244.92;106282;1323;22399;-62
2021/12/11 07:03:52;;;;;;;209.70;94.80;;;;;;;-1.45;82.75;97252.71;106250;1323;23024;-63
2021/12/11 07:06:20;;;;;;;244.50;101.80;;;;;;;-1.45;83.11;97256.41;106282;1320;22408;-62
2021/12/11 07:08:51;;;;;;;223.50;104.10;;;;;;;-1.44;82.91;97260.17;106240;1323;22529;-63
2021/12/11 07:11:22;;;;;;;236.20;99.60;;;;;;;-1.45;83.15;97264.40;106236;1326;22550;-63
2021/12/11 07:13:50;;;;;;;175.40;99.70;;;;;;;-1.45;82.99;97273.52;106248;1323;22431;-62
2021/12/11 07:16:19;;;;;;;182.30;104.80;;;;;;;-1.43;82.97;97280.23;106283;1323;22420;-63
2021/12/11 07:18:47;;;;;;;227.20;109.60;;;;;;;-1.41;82.87;97285.92;106298;1323;22304;-62
2021/12/11 07:21:16;;;;;;;282.00;116.00;;;;;;;-1.37;83.06;97285.27;106255;1323;22372;-62
2021/12/11 07:23:48;;;;;;;286.80;119.00;;;;;;;-1.41;82.80;97292.48;106256;1323;22321;-62
2021/12/11 07:26:22;;;;;;;320.90;115.80;;;;;;;-1.46;82.58;97296.55;106280;1323;22373;-62
2021/12/11 07:28:54;;;;;;;296.30;106.50;;;;;;;-1.49;82.96;97303.75;106304;1323;23272;-62
2021/12/11 07:31:24;;;;;;;222.00;103.40;;;;;;;-1.47;82.94;97305.52;106253;1323;22349;-62
2021/12/11 07:33:52;;;;;;;225.70;119.90;;;;;;;-1.48;82.68;97309.32;106262;1323;22487;-62
2021/12/11 07:36:22;;;;;;;269.50;128.50;;;;;;;-1.44;83.01;97316.23;106281;1323;23142;-62
2021/12/11 07:38:51;;;;;;;257.20;130.60;;;;;;;-1.42;82.98;97320.26;106298;1323;22292;-63
2021/12/11 07:41:20;;;;;;;303.20;128.50;;;;;;;-1.43;83.16;97324.16;106239;1323;23497;-63
2021/12/11 07:43:49;;;;;;;367.20;120.70;;;;;;;-1.42;83.47;97331.05;106291;1323;23146;-63
2021/12/11 07:46:21;;;;;;;201.40;101.60;;;;;;;-1.40;83.44;97337.69;106289;1323;22801;-63
2021/12/11 07:48:51;;;;;;;194.20;98.60;;;;;;;-1.37;83.26;97339.59;106243;1324;22289;-62
2021/12/11 07:51:22;;;;;;;169.40;97.40;;;;;;;-1.33;83.11;97341.14;106300;1323;22389;-62
2021/12/11 07:53:51;;;;;;;203.30;94.50;;;;;;;-1.28;83.24;97333.80;106159;1323;138201;-63
2021/12/11 07:56:20;;;;;;;268.30;110.90;;;;;;;-1.22;82.99;97336.75;106294;1323;22279;-63
2021/12/11 07:58:52;;;;;;;343.70;128.10;;;;;;;-1.25;82.94;97336.11;106283;1323;23102;-63
2021/12/11 08:01:21;;;;;;;380.20;139.00;;;;;;;-1.30;82.94;97329.10;106272;1323;22373;-62
2021/12/11 08:03:50;;;;;;;222.00;110.20;;;;;;;-1.27;83.29;97327.80;106289;1323;22621;-62
2021/12/11 08:06:18;;;;;;;177.50;96.50;;;;;;;-1.23;83.32;97324.73;106248;1324;22938;-62
2021/12/11 08:08:46;;;;;;;169.60;98.10;;;;;;;-1.23;82.78;97326.27;106296;1323;22275;-62
2021/12/11 08:11:17;;;;;;;156.10;99.30;;;;;;;-1.23;82.92;97330.82;106242;1324;23236;-63
2021/12/11 08:13:48;;;;;;;131.70;90.50;;;;;;;-1.17;83.13;97334.20;106249;1323;22358;-63
2021/12/11 08:16:22;;;;;;;152.80;98.50;;;;;;;-1.17;83.17;97345.10;106295;1323;23015;-63
2021/12/11 08:18:52;;;;;;;157.30;104.10;;;;;;;-1.12;83.38;97354.06;106222;1323;22446;-62
2021/12/11 08:21:21;;;;;;;152.80;99.60;;;;;;;-1.06;83.63;97357.47;106280;1323;22535;-61
2021/12/11 08:23:54;;;;;;;157.70;99.90;;;;;;;-1.02;83.49;97366.20;106265;1322;22291;-62
2021/12/11 08:26:25;;;;;;;154.90;99.70;;;;;;;-0.99;83.28;97374.23;106256;1323;22501;-63
2021/12/11 08:28:54;;;;;;;202.00;123.20;;;;;;;-0.91;83.40;97384.48;106354;1323;22450;-62
2021/12/11 08:31:23;;;;;;;228.20;132.20;;;;;;;-0.83;83.55;97396.89;106249;1324;22996;-62
2021/12/11 08:33:53;;;;;;;248.90;141.60;;;;;;;-0.79;83.46;97399.23;106245;1323;22295;-63
2021/12/11 08:36:23;;;;;;;225.80;127.00;;;;;;;-0.77;83.32;97402.65;106259;1323;22616;-62
2021/12/11 08:38:53;;;;;;;195.00;113.90;;;;;;;-0.76;83.39;97408.36;106282;1323;22280;-62
2021/12/11 08:41:24;;;;;;;143.40;93.20;;;;;;;-0.73;83.31;97410.83;106264;1323;22269;-62
2021/12/11 08:43:59;;;;;;;159.30;103.70;;;;;;;-0.74;83.16;97410.44;106152;1323;22404;-61
2021/12/11 08:46:29;;;;;;;148.90;97.40;;;;;;;-0.64;83.53;97424.42;106256;1324;22541;-62
2021/12/11 08:49:00;;;;;;;142.70;99.60;;;;;;;-0.59;83.24;97431.46;106231;1323;22599;-62
2021/12/11 08:51:35;;;;;;;140.50;100.10;;;;;;;-0.54;83.49;97436.41;106331;1320;22739;-63
2021/12/11 08:54:05;;;;;;;145.00;102.10;;;;;;;-0.47;83.22;97436.89;106259;1323;22929;-62
2021/12/11 08:56:35;;;;;;;104.30;83.10;;;;;;;-0.45;83.28;97447.77;106297;1323;22538;-62
2021/12/11 08:59:05;;;;;;;87.30;75.90;;;;;;;-0.40;83.26;97456.33;106292;1323;22529;-62
2021/12/11 09:01:43;;;;;;;93.40;77.90;;;;;;;-0.34;83.01;97461.56;106117;1323;22438;-62
2021/12/11 09:04:25;;;;;;;130.70;88.20;;;;;;;-0.28;83.02;97465.53;106297;1323;22443;-61
2021/12/11 09:07:05;;;;;;;134.40;91.50;;;;;;;-0.25;83.22;97467.11;106278;1323;22514;-63
2021/12/11 09:09:49;;;;;;;144.20;93.80;;;;;;;-0.22;83.43;97470.02;106253;1323;22612;-62
2021/12/11 09:12:20;;;;;;;158.20;99.00;;;;;;;-0.20;83.36;97471.39;106280;1323;22729;-62
2021/12/11 09:15:05;;;;;;;166.60;101.90;;;;;;;-0.15;83.52;97479.62;106260;1323;22414;-63
2021/12/11 09:17:40;;;;;;;151.70;96.60;;;;;;;-0.08;83.41;97484.73;106260;1324;23272;-63
2021/12/11 09:20:21;;;;;;;153.80;97.80;;;;;;;-0.04;83.23;97484.69;106320;1323;22914;-63
2021/12/11 09:22:55;;;;;;;152.50;97.60;;;;;;;0.04;83.30;97487.88;106265;1323;23033;-63
2021/12/11 09:25:32;;;;;;;168.30;99.50;;;;;;;0.14;83.65;97486.98;106339;1323;22250;-62
2021/12/11 09:28:13;;;;;;;166.70;101.10;;;;;;;0.23;83.66;97492.42;106252;1324;22553;-62
2021/12/11 09:30:58;;;;;;;164.40;98.60;;;;;;;0.30;83.62;97492.98;106266;1323;23251;-62
2021/12/11 09:33:34;;;;;;;120.70;82.60;;;;;;;0.34;83.46;97498.52;106140;1323;136933;-61
2021/12/11 09:36:30;;;;;;;91.50;72.90;;;;;;;0.37;83.41;97500.73;106272;1323;22490;-61
2021/12/11 09:39:07;;;;;;;96.90;79.20;;;;;;;0.47;83.37;97497.31;106236;1323;22405;-62
2021/12/11 09:41:36;;;;;;;73.80;65.60;;;;;;;0.55;83.34;97500.14;106280;1323;23584;-62
2021/12/11 09:44:15;;;;;;;72.70;64.80;;;;;;;0.61;83.32;97506.42;106264;1323;22535;-62
2021/12/11 09:47:05;;;;;;;77.80;69.70;;;;;;;0.68;83.48;97509.38;106284;1323;22560;-62
2021/12/11 09:49:38;;;;;;;95.70;76.60;;;;;;;0.75;83.56;97515.31;106028;1323;274086;-61
2021/12/11 09:52:23;;;;;;;72.00;63.70;;;;;;;0.77;83.43;97521.60;106259;1323;22575;-62
2021/12/11 09:54:58;;;;;;;73.60;65.60;;;;;;;0.78;83.15;97531.27;106285;1323;22402;-62
2021/12/11 09:57:31;;;;;;;79.80;71.30;;;;;;;0.81;83.11;97532.52;106266;1323;22595;-63
2021/12/11 10:00:04;;;;;;;86.40;74.40;;;;;;;0.83;83.09;97538.54;106269;1323;22489;-63
2021/12/11 10:02:41;;;;;;;81.10;70.70;;;;;;;0.81;83.20;97544.20;106284;1323;23392;-62
2021/12/11 10:05:30;;;;;;;86.30;70.20;;;;;;;0.83;83.37;97548.57;106253;1324;22405;-62
2021/12/11 10:08:31;;;;;;;91.20;73.50;;;;;;;0.84;83.12;97551.23;106280;1323;23139;-62
2021/12/11 10:11:07;;;;;;;89.80;71.60;;;;;;;0.85;83.42;97547.98;106180;1323;137518;-63
2021/12/11 10:13:44;;;;;;;75.30;67.10;;;;;;;0.91;83.23;97548.95;106265;1323;22408;-61
2021/12/11 10:16:15;;;;;;;81.30;68.80;;;;;;;0.98;83.13;97548.52;106284;1323;22406;-62
2021/12/11 10:18:45;;;;;;;85.40;68.90;;;;;;;1.05;82.99;97549.17;106272;1323;22490;-62
2021/12/11 10:21:36;;;;;;;94.10;71.60;;;;;;;1.09;83.00;97544.41;106251;1323;22385;-62
2021/12/11 10:24:09;;;;;;;83.10;71.90;;;;;;;1.12;82.97;97549.23;106226;1323;22473;-61
2021/12/11 10:26:38;;;;;;;82.00;66.70;;;;;;;1.14;82.82;97548.45;106257;1323;22596;-62
2021/12/11 10:29:11;;;;;;;88.10;68.90;;;;;;;1.12;82.47;97553.38;106287;1323;22420;-62
2021/12/11 10:31:54;;;;;;;91.00;73.90;;;;;;;1.15;82.75;97557.39;106290;1323;22097;-62
2021/12/11 10:34:28;;;;;;;91.60;73.60;;;;;;;1.22;82.80;97558.11;106295;1323;22302;-63
2021/12/11 10:37:10;;;;;;;104.10;80.60;;;;;;;1.32;83.13;97557.66;106164;1326;23297;-62
2021/12/11 10:39:43;;;;;;;140.60;90.90;;;;;;;1.43;83.23;97558.09;106271;1323;22481;-62
2021/12/11 10:42:11;;;;;;;146.10;98.90;;;;;;;1.49;82.70;97557.46;106298;1323;22491;-62
2021/12/11 10:44:43;;;;;;;137.90;89.30;;;;;;;1.47;82.32;97560.43;106285;1323;22312;-62
2021/12/11 10:47:16;;;;;;;143.00;92.10;;;;;;;1.47;82.27;97567.12;106300;1323;22469;-62
2021/12/11 10:50:13;;;;;;;144.30;93.70;;;;;;;1.53;82.25;97568.61;106131;1315;138573;-61
2021/12/11 10:52:43;;;;;;;135.30;89.70;;;;;;;1.59;82.54;97574.20;106166;1323;23208;-62
2021/12/11 10:55:18;;;;;;;150.50;94.00;;;;;;;1.60;82.41;97573.52;106363;1323;22414;-62
2021/12/11 10:57:47;;;;;;;140.00;93.00;;;;;;;1.58;82.58;97571.65;106337;1322;22441;-63
2021/12/11 11:00:30;;;;;;;146.10;92.40;;;;;;;1.56;82.26;97572.70;106267;1323;22570;-60
2021/12/11 11:02:58;;;;;;;137.80;85.80;;;;;;;1.51;82.20;97569.50;106348;1323;22566;-62
2021/12/11 11:05:29;;;;;;;123.80;84.50;;;;;;;1.52;82.41;97575.02;106292;1323;22467;-62
2021/12/11 11:07:58;;;;;;;137.80;90.00;;;;;;;1.59;82.58;97576.76;106336;1323;22474;-62
2021/12/11 11:10:32;;;;;;;148.20;91.70;;;;;;;1.62;82.51;97574.78;106312;1323;22334;-62
2021/12/11 11:13:05;;;;;;;142.60;91.50;;;;;;;1.63;82.44;97575.69;106293;1318;22624;-62
2021/12/11 11:15:34;;;;;;;165.70;106.10;;;;;;;1.66;82.40;97584.91;106334;1320;22296;-62
2021/12/11 11:18:05;;;;;;;117.90;86.00;;;;;;;1.67;82.43;97586.77;106279;1323;23250;-62
2021/12/11 11:20:37;;;;;;;138.40;90.10;;;;;;;1.67;82.55;97592.61;106310;1323;23236;-62
2021/12/11 11:23:06;;;;;;;125.80;84.80;;;;;;;1.67;82.43;97595.48;106314;1323;23271;-62
2021/12/11 11:25:41;;;;;;;126.90;88.70;;;;;;;1.69;82.24;97595.57;106330;1323;22604;-63
2021/12/11 11:28:18;;;;;;;129.60;89.10;;;;;;;1.73;82.25;97599.81;106343;1323;22965;-63
2021/12/11 11:30:52;;;;;;;254.50;155.00;;;;;;;1.76;82.26;97598.23;106335;1323;22401;-62
2021/12/11 11:33:21;;;;;;;152.10;102.30;;;;;;;1.71;81.97;97589.54;106143;1317;137931;-62
2021/12/11 11:35:52;;;;;;;145.00;94.80;;;;;;;1.57;81.72;97591.98;106312;1323;22997;-62
2021/12/11 11:38:27;;;;;;;146.00;92.40;;;;;;;1.46;82.00;97604.06;106326;1323;23269;-62
2021/12/11 11:41:04;;;;;;;133.60;86.40;;;;;;;1.43;81.97;97611.19;106334;1323;22418;-63
2021/12/11 11:43:32;;;;;;;117.30;80.90;;;;;;;1.44;82.12;97615.25;106304;1323;22269;-63
2021/12/11 11:46:01;;;;;;;107.90;82.50;;;;;;;1.50;82.07;97621.10;106331;1323;22392;-63
2021/12/11 11:48:33;;;;;;;128.20;88.00;;;;;;;1.59;82.07;97617.76;106276;1323;22527;-63
2021/12/11 11:51:23;;;;;;;128.40;85.90;;;;;;;1.66;82.22;97615.40;106302;1323;22432;-63
2021/12/11 11:53:51;;;;;;;127.30;84.40;;;;;;;1.70;81.91;97615.61;106350;1323;22480;-63
2021/12/11 11:56:29;;;;;;;92.60;75.00;;;;;;;1.68;81.79;97613.94;106335;1323;22425;-63